sensor_id;sensor_type;location;lat;lon;timestamp;temperature;humidity
7658;DHT22;8462;53.156;8.220;2022-12-13T00:00:44;-0.70;88.50
7658;DHT22;8462;53.156;8.220;2022-12-13T00:03:12;-0.60;88.30
7658;DHT22;8462;53.156;8.220;2022-12-13T00:05:42;-0.60;88.10
7658;DHT22;8462;53.156;8.220;2022-12-13T00:08:09;-0.60;87.80
7658;DHT22;8462;53.156;8.220;2022-12-13T00:10:36;-0.60;87.20
7658;DHT22;8462;53.156;8.220;2022-12-13T00:13:03;-0.60;87.20
7658;DHT22;8462;53.156;8.220;2022-12-13T00:15:30;-0.60;87.20
7658;DHT22;8462;53.156;8.220;2022-12-13T00:17:57;-0.70;87.60
7658;DHT22;8462;53.156;8.220;2022-12-13T00:20:25;-0.70;87.70
7658;DHT22;8462;53.156;8.220;2022-12-13T00:22:52;-0.80;87.60
7658;DHT22;8462;53.156;8.220;2022-12-13T00:25:19;-0.80;87.70
7658;DHT22;8462;53.156;8.220;2022-12-13T00:27:46;-0.80;88.00
7658;DHT22;8462;53.156;8.220;2022-12-13T00:30:13;-0.80;88.00
7658;DHT22;8462;53.156;8.220;2022-12-13T00:32:40;-0.80;88.10
7658;DHT22;8462;53.156;8.220;2022-12-13T00:35:08;-0.70;88.30
7658;DHT22;8462;53.156;8.220;2022-12-13T00:37:36;-0.70;88.00
7658;DHT22;8462;53.156;8.220;2022-12-13T00:40:04;-0.70;87.60
7658;DHT22;8462;53.156;8.220;2022-12-13T00:42:34;-0.70;87.50
7658;DHT22;8462;53.156;8.220;2022-12-13T00:45:01;-0.70;87.40
7658;DHT22;8462;53.156;8.220;2022-12-13T00:47:28;-0.80;87.30
7658;DHT22;8462;53.156;8.220;2022-12-13T00:49:55;-0.80;87.20
7658;DHT22;8462;53.156;8.220;2022-12-13T00:52:22;-0.90;87.70
7658;DHT22;8462;53.156;8.220;2022-12-13T00:54:50;-0.90;88.60
7658;DHT22;8462;53.156;8.220;2022-12-13T00:57:17;-0.80;88.90
7658;DHT22;8462;53.156;8.220;2022-12-13T00:59:44;-0.70;88.70
7658;DHT22;8462;53.156;8.220;2022-12-13T01:02:11;-0.60;89.30
7658;DHT22;8462;53.156;8.220;2022-12-13T01:04:38;-0.60;88.40
7658;DHT22;8462;53.156;8.220;2022-12-13T01:07:05;-0.60;88.10
7658;DHT22;8462;53.156;8.220;2022-12-13T01:09:32;-0.60;88.20
7658;DHT22;8462;53.156;8.220;2022-12-13T01:12:03;-0.60;88.40
7658;DHT22;8462;53.156;8.220;2022-12-13T01:14:30;-0.60;88.90
7658;DHT22;8462;53.156;8.220;2022-12-13T01:16:58;-0.50;89.30
7658;DHT22;8462;53.156;8.220;2022-12-13T01:19:26;-0.40;89.10
7658;DHT22;8462;53.156;8.220;2022-12-13T01:21:53;-0.40;89.50
7658;DHT22;8462;53.156;8.220;2022-12-13T01:24:20;-0.40;89.70
7658;DHT22;8462;53.156;8.220;2022-12-13T01:26:49;-0.40;90.00
7658;DHT22;8462;53.156;8.220;2022-12-13T01:29:18;-0.40;90.20
7658;DHT22;8462;53.156;8.220;2022-12-13T01:31:46;-0.40;90.40
7658;DHT22;8462;53.156;8.220;2022-12-13T01:34:14;-0.40;90.60
7658;DHT22;8462;53.156;8.220;2022-12-13T01:36:43;-0.30;90.60
7658;DHT22;8462;53.156;8.220;2022-12-13T01:39:13;-0.20;90.60
7658;DHT22;8462;53.156;8.220;2022-12-13T01:41:41;-0.20;90.70
7658;DHT22;8462;53.156;8.220;2022-12-13T01:47:10;-0.10;90.80
7658;DHT22;8462;53.156;8.220;2022-12-13T01:49:40;-0.10;90.70
7658;DHT22;8462;53.156;8.220;2022-12-13T01:52:11;-0.10;90.60
7658;DHT22;8462;53.156;8.220;2022-12-13T01:54:43;-0.10;90.80
7658;DHT22;8462;53.156;8.220;2022-12-13T01:57:11;0.00;90.60
7658;DHT22;8462;53.156;8.220;2022-12-13T01:59:41;0.00;90.60
7658;DHT22;8462;53.156;8.220;2022-12-13T02:02:11;0.00;90.50
7658;DHT22;8462;53.156;8.220;2022-12-13T02:04:44;0.00;90.90
7658;DHT22;8462;53.156;8.220;2022-12-13T02:07:16;0.00;90.30
7658;DHT22;8462;53.156;8.220;2022-12-13T02:09:44;0.00;90.30
7658;DHT22;8462;53.156;8.220;2022-12-13T02:12:11;0.00;90.20
7658;DHT22;8462;53.156;8.220;2022-12-13T02:14:39;0.00;90.30
7658;DHT22;8462;53.156;8.220;2022-12-13T02:17:12;0.00;90.30
7658;DHT22;8462;53.156;8.220;2022-12-13T02:23:15;0.00;90.50
7658;DHT22;8462;53.156;8.220;2022-12-13T02:25:59;-0.10;90.50
7658;DHT22;8462;53.156;8.220;2022-12-13T02:28:47;-0.10;90.60
7658;DHT22;8462;53.156;8.220;2022-12-13T02:31:28;-0.10;90.80
7658;DHT22;8462;53.156;8.220;2022-12-13T02:34:00;-0.10;90.90
7658;DHT22;8462;53.156;8.220;2022-12-13T02:36:29;0.00;90.80
7658;DHT22;8462;53.156;8.220;2022-12-13T02:39:09;0.00;90.70
7658;DHT22;8462;53.156;8.220;2022-12-13T02:41:40;0.10;90.80
7658;DHT22;8462;53.156;8.220;2022-12-13T02:44:11;0.10;90.90
7658;DHT22;8462;53.156;8.220;2022-12-13T02:46:48;0.10;90.90
7658;DHT22;8462;53.156;8.220;2022-12-13T02:49:19;0.20;90.90
7658;DHT22;8462;53.156;8.220;2022-12-13T02:51:49;0.30;90.70
7658;DHT22;8462;53.156;8.220;2022-12-13T02:54:16;0.40;90.40
7658;DHT22;8462;53.156;8.220;2022-12-13T02:56:52;0.40;90.20
7658;DHT22;8462;53.156;8.220;2022-12-13T02:59:19;0.40;90.20
7658;DHT22;8462;53.156;8.220;2022-12-13T03:01:55;0.40;90.40
7658;DHT22;8462;53.156;8.220;2022-12-13T03:04:34;0.50;90.30
7658;DHT22;8462;53.156;8.220;2022-12-13T03:07:08;0.50;90.00
7658;DHT22;8462;53.156;8.220;2022-12-13T03:09:46;0.50;89.80
7658;DHT22;8462;53.156;8.220;2022-12-13T03:12:23;0.40;90.00
7658;DHT22;8462;53.156;8.220;2022-12-13T03:15:14;0.40;90.20
7658;DHT22;8462;53.156;8.220;2022-12-13T03:17:48;0.40;90.20
7658;DHT22;8462;53.156;8.220;2022-12-13T03:20:17;0.50;90.30
7658;DHT22;8462;53.156;8.220;2022-12-13T03:22:44;0.50;90.30
7658;DHT22;8462;53.156;8.220;2022-12-13T03:25:12;0.60;90.20
7658;DHT22;8462;53.156;8.220;2022-12-13T03:27:40;0.50;90.30
7658;DHT22;8462;53.156;8.220;2022-12-13T03:30:08;0.60;90.60
7658;DHT22;8462;53.156;8.220;2022-12-13T03:32:35;0.60;90.60
7658;DHT22;8462;53.156;8.220;2022-12-13T03:35:03;0.60;90.50
7658;DHT22;8462;53.156;8.220;2022-12-13T03:37:31;0.60;90.70
7658;DHT22;8462;53.156;8.220;2022-12-13T03:39:58;0.60;90.80
7658;DHT22;8462;53.156;8.220;2022-12-13T03:42:25;0.60;90.80
7658;DHT22;8462;53.156;8.220;2022-12-13T03:44:52;0.60;90.90
7658;DHT22;8462;53.156;8.220;2022-12-13T03:47:20;0.70;90.90
7658;DHT22;8462;53.156;8.220;2022-12-13T03:49:47;0.70;91.00
7658;DHT22;8462;53.156;8.220;2022-12-13T03:52:15;0.70;91.00
7658;DHT22;8462;53.156;8.220;2022-12-13T03:54:42;0.80;90.90
7658;DHT22;8462;53.156;8.220;2022-12-13T03:57:09;0.80;90.90
7658;DHT22;8462;53.156;8.220;2022-12-13T03:59:36;0.80;90.70
7658;DHT22;8462;53.156;8.220;2022-12-13T04:02:03;0.80;90.70
7658;DHT22;8462;53.156;8.220;2022-12-13T04:04:30;0.80;90.60
7658;DHT22;8462;53.156;8.220;2022-12-13T04:06:59;0.80;90.30
7658;DHT22;8462;53.156;8.220;2022-12-13T04:09:28;0.70;90.30
7658;DHT22;8462;53.156;8.220;2022-12-13T04:11:55;0.70;90.60
7658;DHT22;8462;53.156;8.220;2022-12-13T04:14:39;0.60;90.70
7658;DHT22;8462;53.156;8.220;2022-12-13T04:17:07;0.60;90.90
7658;DHT22;8462;53.156;8.220;2022-12-13T04:19:34;0.70;91.10
7658;DHT22;8462;53.156;8.220;2022-12-13T04:22:01;0.70;90.80
7658;DHT22;8462;53.156;8.220;2022-12-13T04:24:30;0.70;90.80
7658;DHT22;8462;53.156;8.220;2022-12-13T04:26:58;0.70;90.90
7658;DHT22;8462;53.156;8.220;2022-12-13T04:29:25;0.70;90.70
7658;DHT22;8462;53.156;8.220;2022-12-13T04:31:52;0.70;90.40
7658;DHT22;8462;53.156;8.220;2022-12-13T04:34:21;0.70;90.50
7658;DHT22;8462;53.156;8.220;2022-12-13T04:36:48;0.60;90.60
7658;DHT22;8462;53.156;8.220;2022-12-13T04:39:16;0.70;90.80
7658;DHT22;8462;53.156;8.220;2022-12-13T04:41:44;0.70;90.80
7658;DHT22;8462;53.156;8.220;2022-12-13T04:44:11;0.70;90.50
7658;DHT22;8462;53.156;8.220;2022-12-13T04:46:42;0.70;90.30
7658;DHT22;8462;53.156;8.220;2022-12-13T04:49:10;0.70;90.30
7658;DHT22;8462;53.156;8.220;2022-12-13T04:51:38;0.60;90.00
7658;DHT22;8462;53.156;8.220;2022-12-13T04:54:06;0.60;90.10
7658;DHT22;8462;53.156;8.220;2022-12-13T04:56:34;0.50;90.20
7658;DHT22;8462;53.156;8.220;2022-12-13T04:59:05;0.50;90.60
7658;DHT22;8462;53.156;8.220;2022-12-13T05:01:33;0.50;90.50
7658;DHT22;8462;53.156;8.220;2022-12-13T05:04:01;0.50;90.40
7658;DHT22;8462;53.156;8.220;2022-12-13T05:06:28;0.60;90.50
7658;DHT22;8462;53.156;8.220;2022-12-13T05:08:55;0.50;90.10
7658;DHT22;8462;53.156;8.220;2022-12-13T05:11:22;0.40;90.10
7658;DHT22;8462;53.156;8.220;2022-12-13T05:13:49;0.40;90.30
7658;DHT22;8462;53.156;8.220;2022-12-13T05:16:17;0.40;90.30
7658;DHT22;8462;53.156;8.220;2022-12-13T05:18:44;0.30;90.10
7658;DHT22;8462;53.156;8.220;2022-12-13T05:21:11;0.20;90.30
7658;DHT22;8462;53.156;8.220;2022-12-13T05:23:38;0.20;90.20
7658;DHT22;8462;53.156;8.220;2022-12-13T05:26:05;0.10;90.30
7658;DHT22;8462;53.156;8.220;2022-12-13T05:28:33;0.20;90.30
7658;DHT22;8462;53.156;8.220;2022-12-13T05:31:06;0.10;90.30
7658;DHT22;8462;53.156;8.220;2022-12-13T05:33:34;0.10;90.50
7658;DHT22;8462;53.156;8.220;2022-12-13T05:36:02;0.20;90.40
7658;DHT22;8462;53.156;8.220;2022-12-13T05:38:30;0.10;90.20
7658;DHT22;8462;53.156;8.220;2022-12-13T05:40:57;0.10;90.30
7658;DHT22;8462;53.156;8.220;2022-12-13T05:43:25;0.10;90.40
7658;DHT22;8462;53.156;8.220;2022-12-13T05:45:51;0.20;90.50
7658;DHT22;8462;53.156;8.220;2022-12-13T05:48:18;0.20;90.60
7658;DHT22;8462;53.156;8.220;2022-12-13T05:50:47;0.30;90.50
7658;DHT22;8462;53.156;8.220;2022-12-13T05:53:14;0.30;90.40
7658;DHT22;8462;53.156;8.220;2022-12-13T05:55:41;0.30;90.30
7658;DHT22;8462;53.156;8.220;2022-12-13T05:58:08;0.30;90.00
7658;DHT22;8462;53.156;8.220;2022-12-13T06:00:38;0.30;90.10
7658;DHT22;8462;53.156;8.220;2022-12-13T06:03:10;0.20;90.20
7658;DHT22;8462;53.156;8.220;2022-12-13T06:05:37;0.20;90.40
7658;DHT22;8462;53.156;8.220;2022-12-13T06:08:09;0.30;90.30
7658;DHT22;8462;53.156;8.220;2022-12-13T06:10:37;0.30;90.30
7658;DHT22;8462;53.156;8.220;2022-12-13T06:13:05;0.30;90.10
7658;DHT22;8462;53.156;8.220;2022-12-13T06:15:32;0.30;90.20
7658;DHT22;8462;53.156;8.220;2022-12-13T06:17:59;0.30;90.10
7658;DHT22;8462;53.156;8.220;2022-12-13T06:20:26;0.30;90.20
7658;DHT22;8462;53.156;8.220;2022-12-13T06:22:53;0.30;90.10
7658;DHT22;8462;53.156;8.220;2022-12-13T06:25:21;0.30;89.70
7658;DHT22;8462;53.156;8.220;2022-12-13T06:27:48;0.20;89.30
7658;DHT22;8462;53.156;8.220;2022-12-13T06:30:16;0.20;90.00
7658;DHT22;8462;53.156;8.220;2022-12-13T06:32:47;0.20;90.00
7658;DHT22;8462;53.156;8.220;2022-12-13T06:35:14;0.10;90.00
7658;DHT22;8462;53.156;8.220;2022-12-13T06:37:41;0.10;89.70
7658;DHT22;8462;53.156;8.220;2022-12-13T06:40:09;0.10;90.20
7658;DHT22;8462;53.156;8.220;2022-12-13T06:42:37;0.10;90.20
7658;DHT22;8462;53.156;8.220;2022-12-13T06:45:04;0.10;90.30
7658;DHT22;8462;53.156;8.220;2022-12-13T06:47:32;0.10;90.10
7658;DHT22;8462;53.156;8.220;2022-12-13T06:49:59;0.10;89.50
7658;DHT22;8462;53.156;8.220;2022-12-13T06:52:26;0.10;90.00
7658;DHT22;8462;53.156;8.220;2022-12-13T06:54:53;0.00;90.20
7658;DHT22;8462;53.156;8.220;2022-12-13T06:57:19;0.10;90.30
7658;DHT22;8462;53.156;8.220;2022-12-13T06:59:48;0.00;90.20
7658;DHT22;8462;53.156;8.220;2022-12-13T07:02:15;0.00;90.30
7658;DHT22;8462;53.156;8.220;2022-12-13T07:04:44;0.00;90.20
7658;DHT22;8462;53.156;8.220;2022-12-13T07:07:11;0.00;90.20
7658;DHT22;8462;53.156;8.220;2022-12-13T07:09:38;0.00;90.10
7658;DHT22;8462;53.156;8.220;2022-12-13T07:12:05;0.00;90.00
7658;DHT22;8462;53.156;8.220;2022-12-13T07:14:33;0.00;90.00
7658;DHT22;8462;53.156;8.220;2022-12-13T07:17:01;-0.10;90.10
7658;DHT22;8462;53.156;8.220;2022-12-13T07:19:28;-0.10;90.40
7658;DHT22;8462;53.156;8.220;2022-12-13T07:21:55;-0.10;90.10
7658;DHT22;8462;53.156;8.220;2022-12-13T07:24:24;-0.10;90.10
7658;DHT22;8462;53.156;8.220;2022-12-13T07:26:51;-0.10;90.10
7658;DHT22;8462;53.156;8.220;2022-12-13T07:29:18;-0.10;90.00
7658;DHT22;8462;53.156;8.220;2022-12-13T07:31:47;-0.10;90.10
7658;DHT22;8462;53.156;8.220;2022-12-13T07:34:16;-0.10;90.30
7658;DHT22;8462;53.156;8.220;2022-12-13T07:36:44;-0.10;90.00
7658;DHT22;8462;53.156;8.220;2022-12-13T07:39:11;-0.10;89.70
7658;DHT22;8462;53.156;8.220;2022-12-13T07:41:38;-0.20;90.00
7658;DHT22;8462;53.156;8.220;2022-12-13T07:44:05;-0.20;90.00
7658;DHT22;8462;53.156;8.220;2022-12-13T07:46:33;-0.10;90.20
7658;DHT22;8462;53.156;8.220;2022-12-13T07:49:00;-0.10;90.00
7658;DHT22;8462;53.156;8.220;2022-12-13T07:51:32;-0.10;89.80
7658;DHT22;8462;53.156;8.220;2022-12-13T07:53:59;-0.10;89.70
7658;DHT22;8462;53.156;8.220;2022-12-13T07:56:26;-0.20;89.40
7658;DHT22;8462;53.156;8.220;2022-12-13T07:58:53;-0.20;89.20
7658;DHT22;8462;53.156;8.220;2022-12-13T08:01:20;-0.20;90.00
7658;DHT22;8462;53.156;8.220;2022-12-13T08:03:48;-0.30;89.70
7658;DHT22;8462;53.156;8.220;2022-12-13T08:06:15;-0.20;89.70
7658;DHT22;8462;53.156;8.220;2022-12-13T08:08:45;-0.20;89.60
7658;DHT22;8462;53.156;8.220;2022-12-13T08:11:15;-0.30;89.20
7658;DHT22;8462;53.156;8.220;2022-12-13T08:13:42;-0.20;89.70
7658;DHT22;8462;53.156;8.220;2022-12-13T08:16:11;-0.20;89.60
7658;DHT22;8462;53.156;8.220;2022-12-13T08:18:40;-0.20;89.60
7658;DHT22;8462;53.156;8.220;2022-12-13T08:21:09;-0.10;89.10
7658;DHT22;8462;53.156;8.220;2022-12-13T08:23:36;-0.20;89.40
7658;DHT22;8462;53.156;8.220;2022-12-13T08:26:06;-0.20;89.40
7658;DHT22;8462;53.156;8.220;2022-12-13T08:28:33;-0.10;90.00
7658;DHT22;8462;53.156;8.220;2022-12-13T08:31:05;0.00;89.50
7658;DHT22;8462;53.156;8.220;2022-12-13T08:33:32;0.00;89.10
7658;DHT22;8462;53.156;8.220;2022-12-13T08:36:07;0.00;88.80
7658;DHT22;8462;53.156;8.220;2022-12-13T08:38:34;0.00;88.70
7658;DHT22;8462;53.156;8.220;2022-12-13T08:41:01;0.00;88.40
7658;DHT22;8462;53.156;8.220;2022-12-13T08:43:29;0.00;88.20
7658;DHT22;8462;53.156;8.220;2022-12-13T08:45:56;-0.10;88.10
7658;DHT22;8462;53.156;8.220;2022-12-13T08:48:23;-0.10;88.40
7658;DHT22;8462;53.156;8.220;2022-12-13T08:50:50;-0.10;89.40
7658;DHT22;8462;53.156;8.220;2022-12-13T08:53:18;0.00;89.10
7658;DHT22;8462;53.156;8.220;2022-12-13T08:55:44;0.10;89.10
7658;DHT22;8462;53.156;8.220;2022-12-13T08:58:11;0.10;88.30
7658;DHT22;8462;53.156;8.220;2022-12-13T09:00:40;0.10;88.50
7658;DHT22;8462;53.156;8.220;2022-12-13T09:03:13;0.20;88.90
7658;DHT22;8462;53.156;8.220;2022-12-13T09:05:40;0.20;88.50
7658;DHT22;8462;53.156;8.220;2022-12-13T09:08:08;0.30;89.00
7658;DHT22;8462;53.156;8.220;2022-12-13T09:10:36;0.30;88.10
7658;DHT22;8462;53.156;8.220;2022-12-13T09:13:03;0.30;87.70
7658;DHT22;8462;53.156;8.220;2022-12-13T09:15:31;0.30;88.00
7658;DHT22;8462;53.156;8.220;2022-12-13T09:18:00;0.40;88.70
7658;DHT22;8462;53.156;8.220;2022-12-13T09:20:27;0.40;87.70
7658;DHT22;8462;53.156;8.220;2022-12-13T09:22:54;0.40;87.20
7658;DHT22;8462;53.156;8.220;2022-12-13T09:25:21;0.50;88.00
7658;DHT22;8462;53.156;8.220;2022-12-13T09:27:48;0.50;87.30
7658;DHT22;8462;53.156;8.220;2022-12-13T09:30:15;0.50;87.60
7658;DHT22;8462;53.156;8.220;2022-12-13T09:32:42;0.60;87.20
7658;DHT22;8462;53.156;8.220;2022-12-13T09:35:16;0.60;86.80
7658;DHT22;8462;53.156;8.220;2022-12-13T09:37:43;0.70;86.80
7658;DHT22;8462;53.156;8.220;2022-12-13T09:40:15;0.70;86.90
7658;DHT22;8462;53.156;8.220;2022-12-13T09:42:47;0.80;87.50
7658;DHT22;8462;53.156;8.220;2022-12-13T09:45:15;0.90;86.50
7658;DHT22;8462;53.156;8.220;2022-12-13T09:47:44;0.90;85.90
7658;DHT22;8462;53.156;8.220;2022-12-13T09:50:13;0.80;85.70
7658;DHT22;8462;53.156;8.220;2022-12-13T09:52:43;0.80;86.20
7658;DHT22;8462;53.156;8.220;2022-12-13T09:55:18;0.80;86.50
7658;DHT22;8462;53.156;8.220;2022-12-13T09:57:47;0.80;86.80
7658;DHT22;8462;53.156;8.220;2022-12-13T10:00:17;0.90;86.70
7658;DHT22;8462;53.156;8.220;2022-12-13T10:02:46;0.90;86.40
7658;DHT22;8462;53.156;8.220;2022-12-13T10:05:26;1.00;87.30
7658;DHT22;8462;53.156;8.220;2022-12-13T10:07:58;1.20;87.20
7658;DHT22;8462;53.156;8.220;2022-12-13T10:10:26;1.20;85.50
7658;DHT22;8462;53.156;8.220;2022-12-13T10:12:56;1.10;85.20
7658;DHT22;8462;53.156;8.220;2022-12-13T10:15:25;1.10;85.50
7658;DHT22;8462;53.156;8.220;2022-12-13T10:17:52;1.10;85.50
7658;DHT22;8462;53.156;8.220;2022-12-13T10:20:21;1.10;86.50
7658;DHT22;8462;53.156;8.220;2022-12-13T10:22:50;1.20;86.50
7658;DHT22;8462;53.156;8.220;2022-12-13T10:25:49;1.20;85.40
7658;DHT22;8462;53.156;8.220;2022-12-13T10:28:26;1.30;85.30
7658;DHT22;8462;53.156;8.220;2022-12-13T10:30:56;1.20;84.90
7658;DHT22;8462;53.156;8.220;2022-12-13T10:33:25;1.20;85.70
7658;DHT22;8462;53.156;8.220;2022-12-13T10:36:08;1.20;85.80
7658;DHT22;8462;53.156;8.220;2022-12-13T10:38:38;1.20;84.90
7658;DHT22;8462;53.156;8.220;2022-12-13T10:41:31;1.20;85.20
7658;DHT22;8462;53.156;8.220;2022-12-13T10:44:07;1.20;86.20
7658;DHT22;8462;53.156;8.220;2022-12-13T10:46:34;1.30;86.50
7658;DHT22;8462;53.156;8.220;2022-12-13T10:49:02;1.30;85.70
7658;DHT22;8462;53.156;8.220;2022-12-13T10:51:36;1.40;85.30
7658;DHT22;8462;53.156;8.220;2022-12-13T10:54:04;1.40;86.00
7658;DHT22;8462;53.156;8.220;2022-12-13T10:56:41;1.40;85.00
7658;DHT22;8462;53.156;8.220;2022-12-13T10:59:19;1.50;85.00
7658;DHT22;8462;53.156;8.220;2022-12-13T11:01:49;1.50;85.30
7658;DHT22;8462;53.156;8.220;2022-12-13T11:04:22;1.50;84.80
7658;DHT22;8462;53.156;8.220;2022-12-13T11:06:50;1.50;84.70
7658;DHT22;8462;53.156;8.220;2022-12-13T11:09:29;1.60;84.80
7658;DHT22;8462;53.156;8.220;2022-12-13T11:12:00;1.50;84.70
7658;DHT22;8462;53.156;8.220;2022-12-13T11:14:30;1.50;84.90
7658;DHT22;8462;53.156;8.220;2022-12-13T11:17:04;1.60;84.60
7658;DHT22;8462;53.156;8.220;2022-12-13T11:19:37;1.50;84.30
7658;DHT22;8462;53.156;8.220;2022-12-13T11:22:05;1.50;85.10
7658;DHT22;8462;53.156;8.220;2022-12-13T11:24:35;1.60;84.90
7658;DHT22;8462;53.156;8.220;2022-12-13T11:27:20;1.60;84.70
7658;DHT22;8462;53.156;8.220;2022-12-13T11:29:59;1.60;84.80
7658;DHT22;8462;53.156;8.220;2022-12-13T11:35:26;1.60;85.50
7658;DHT22;8462;53.156;8.220;2022-12-13T11:38:04;1.70;84.90
7658;DHT22;8462;53.156;8.220;2022-12-13T11:40:41;1.70;84.90
7658;DHT22;8462;53.156;8.220;2022-12-13T11:43:22;1.70;84.70
7658;DHT22;8462;53.156;8.220;2022-12-13T11:45:55;1.70;86.00
7658;DHT22;8462;53.156;8.220;2022-12-13T11:48:31;1.70;84.80
7658;DHT22;8462;53.156;8.220;2022-12-13T11:51:03;1.70;84.60
7658;DHT22;8462;53.156;8.220;2022-12-13T11:53:34;1.70;85.20
7658;DHT22;8462;53.156;8.220;2022-12-13T11:56:07;1.70;85.00
7658;DHT22;8462;53.156;8.220;2022-12-13T11:58:44;1.70;84.90
7658;DHT22;8462;53.156;8.220;2022-12-13T12:01:16;1.70;85.60
7658;DHT22;8462;53.156;8.220;2022-12-13T12:03:49;1.70;85.20
7658;DHT22;8462;53.156;8.220;2022-12-13T12:06:21;1.60;85.40
7658;DHT22;8462;53.156;8.220;2022-12-13T12:08:54;1.80;85.90
7658;DHT22;8462;53.156;8.220;2022-12-13T12:11:27;1.90;85.50
7658;DHT22;8462;53.156;8.220;2022-12-13T12:14:02;2.00;85.40
7658;DHT22;8462;53.156;8.220;2022-12-13T12:16:36;2.00;85.40
7658;DHT22;8462;53.156;8.220;2022-12-13T12:19:10;2.20;85.10
7658;DHT22;8462;53.156;8.220;2022-12-13T12:21:52;2.20;84.30
7658;DHT22;8462;53.156;8.220;2022-12-13T12:24:28;2.20;84.40
7658;DHT22;8462;53.156;8.220;2022-12-13T12:27:11;2.20;84.00
7658;DHT22;8462;53.156;8.220;2022-12-13T12:30:04;2.10;84.70
7658;DHT22;8462;53.156;8.220;2022-12-13T12:32:40;2.20;84.50
7658;DHT22;8462;53.156;8.220;2022-12-13T12:35:29;2.20;84.90
7658;DHT22;8462;53.156;8.220;2022-12-13T12:38:10;2.30;84.90
7658;DHT22;8462;53.156;8.220;2022-12-13T12:41:03;2.30;84.40
7658;DHT22;8462;53.156;8.220;2022-12-13T12:43:37;2.40;84.20
7658;DHT22;8462;53.156;8.220;2022-12-13T12:46:26;2.40;84.00
7658;DHT22;8462;53.156;8.220;2022-12-13T12:49:22;2.30;83.60
7658;DHT22;8462;53.156;8.220;2022-12-13T12:52:00;2.20;83.70
7658;DHT22;8462;53.156;8.220;2022-12-13T12:54:40;2.20;84.30
7658;DHT22;8462;53.156;8.220;2022-12-13T12:57:14;2.20;84.20
7658;DHT22;8462;53.156;8.220;2022-12-13T12:59:56;2.10;84.70
7658;DHT22;8462;53.156;8.220;2022-12-13T13:02:34;2.20;84.90
7658;DHT22;8462;53.156;8.220;2022-12-13T13:05:11;2.20;84.60
7658;DHT22;8462;53.156;8.220;2022-12-13T13:07:42;2.20;84.70
7658;DHT22;8462;53.156;8.220;2022-12-13T13:10:11;2.20;84.70
7658;DHT22;8462;53.156;8.220;2022-12-13T13:12:39;2.20;84.20
7658;DHT22;8462;53.156;8.220;2022-12-13T13:18:46;2.10;84.70
7658;DHT22;8462;53.156;8.220;2022-12-13T13:21:31;2.10;84.80
7658;DHT22;8462;53.156;8.220;2022-12-13T13:24:13;2.00;85.30
7658;DHT22;8462;53.156;8.220;2022-12-13T13:26:42;1.90;85.70
7658;DHT22;8462;53.156;8.220;2022-12-13T13:29:31;2.00;86.10
7658;DHT22;8462;53.156;8.220;2022-12-13T13:32:00;2.00;85.50
7658;DHT22;8462;53.156;8.220;2022-12-13T13:34:31;2.00;85.60
7658;DHT22;8462;53.156;8.220;2022-12-13T13:36:59;1.90;85.90
7658;DHT22;8462;53.156;8.220;2022-12-13T13:39:53;2.00;86.10
7658;DHT22;8462;53.156;8.220;2022-12-13T13:42:21;2.00;85.70
7658;DHT22;8462;53.156;8.220;2022-12-13T13:45:00;2.00;85.10
7658;DHT22;8462;53.156;8.220;2022-12-13T13:47:40;1.90;85.30
7658;DHT22;8462;53.156;8.220;2022-12-13T13:50:34;1.90;85.40
7658;DHT22;8462;53.156;8.220;2022-12-13T13:56:34;1.90;85.60
7658;DHT22;8462;53.156;8.220;2022-12-13T14:02:43;1.90;86.20
7658;DHT22;8462;53.156;8.220;2022-12-13T14:05:47;1.90;86.60
7658;DHT22;8462;53.156;8.220;2022-12-13T14:08:29;2.00;86.10
7658;DHT22;8462;53.156;8.220;2022-12-13T14:11:19;1.90;86.10
7658;DHT22;8462;53.156;8.220;2022-12-13T14:17:43;1.80;86.70
7658;DHT22;8462;53.156;8.220;2022-12-13T14:20:55;1.70;86.90
7658;DHT22;8462;53.156;8.220;2022-12-13T14:23:36;1.60;87.00
7658;DHT22;8462;53.156;8.220;2022-12-13T14:26:22;1.50;87.30
7658;DHT22;8462;53.156;8.220;2022-12-13T14:28:54;1.50;87.60
7658;DHT22;8462;53.156;8.220;2022-12-13T14:31:23;1.40;88.30
7658;DHT22;8462;53.156;8.220;2022-12-13T14:33:52;1.40;87.80
7658;DHT22;8462;53.156;8.220;2022-12-13T14:36:28;1.40;87.90
7658;DHT22;8462;53.156;8.220;2022-12-13T14:38:59;1.30;88.10
7658;DHT22;8462;53.156;8.220;2022-12-13T14:41:27;1.30;88.20
7658;DHT22;8462;53.156;8.220;2022-12-13T14:43:54;1.20;88.20
7658;DHT22;8462;53.156;8.220;2022-12-13T14:46:21;1.20;88.90
7658;DHT22;8462;53.156;8.220;2022-12-13T14:48:49;1.30;88.90
7658;DHT22;8462;53.156;8.220;2022-12-13T14:51:32;1.30;88.60
7658;DHT22;8462;53.156;8.220;2022-12-13T14:54:02;1.30;88.40
7658;DHT22;8462;53.156;8.220;2022-12-13T14:56:29;1.30;88.80
7658;DHT22;8462;53.156;8.220;2022-12-13T14:58:58;1.30;88.50
7658;DHT22;8462;53.156;8.220;2022-12-13T15:01:27;1.30;88.70
7658;DHT22;8462;53.156;8.220;2022-12-13T15:04:15;1.30;88.50
7658;DHT22;8462;53.156;8.220;2022-12-13T15:06:44;1.20;88.50
7658;DHT22;8462;53.156;8.220;2022-12-13T15:09:12;1.20;88.20
7658;DHT22;8462;53.156;8.220;2022-12-13T15:11:40;1.20;88.30
7658;DHT22;8462;53.156;8.220;2022-12-13T15:14:13;1.10;88.20
7658;DHT22;8462;53.156;8.220;2022-12-13T15:16:46;1.10;88.90
7658;DHT22;8462;53.156;8.220;2022-12-13T15:19:24;1.00;89.00
7658;DHT22;8462;53.156;8.220;2022-12-13T15:21:57;1.00;89.40
7658;DHT22;8462;53.156;8.220;2022-12-13T15:24:30;1.10;89.30
7658;DHT22;8462;53.156;8.220;2022-12-13T15:27:19;1.00;89.20
7658;DHT22;8462;53.156;8.220;2022-12-13T15:29:47;1.00;89.40
7658;DHT22;8462;53.156;8.220;2022-12-13T15:32:16;1.00;89.10
7658;DHT22;8462;53.156;8.220;2022-12-13T15:34:45;0.90;89.30
7658;DHT22;8462;53.156;8.220;2022-12-13T15:37:27;0.90;89.40
7658;DHT22;8462;53.156;8.220;2022-12-13T15:39:59;0.90;89.50
7658;DHT22;8462;53.156;8.220;2022-12-13T15:42:30;0.90;89.30
7658;DHT22;8462;53.156;8.220;2022-12-13T15:44:58;0.90;89.40
7658;DHT22;8462;53.156;8.220;2022-12-13T15:47:26;0.90;89.60
7658;DHT22;8462;53.156;8.220;2022-12-13T15:49:56;0.80;89.70
7658;DHT22;8462;53.156;8.220;2022-12-13T15:52:27;0.80;89.70
7658;DHT22;8462;53.156;8.220;2022-12-13T15:54:57;0.80;89.90
7658;DHT22;8462;53.156;8.220;2022-12-13T15:57:25;0.80;89.80
7658;DHT22;8462;53.156;8.220;2022-12-13T16:00:19;0.80;89.90
7658;DHT22;8462;53.156;8.220;2022-12-13T16:02:52;0.70;90.00
7658;DHT22;8462;53.156;8.220;2022-12-13T16:05:27;0.70;90.00
7658;DHT22;8462;53.156;8.220;2022-12-13T16:07:58;0.80;90.00
7658;DHT22;8462;53.156;8.220;2022-12-13T16:10:26;0.80;89.90
7658;DHT22;8462;53.156;8.220;2022-12-13T16:12:57;0.70;89.90
7658;DHT22;8462;53.156;8.220;2022-12-13T16:15:27;0.80;90.00
7658;DHT22;8462;53.156;8.220;2022-12-13T16:18:04;0.80;89.90
7658;DHT22;8462;53.156;8.220;2022-12-13T16:20:32;0.80;89.60
7658;DHT22;8462;53.156;8.220;2022-12-13T16:23:00;0.80;89.40
7658;DHT22;8462;53.156;8.220;2022-12-13T16:25:27;0.80;89.40
7658;DHT22;8462;53.156;8.220;2022-12-13T16:27:54;0.80;89.50
7658;DHT22;8462;53.156;8.220;2022-12-13T16:30:24;0.80;89.50
7658;DHT22;8462;53.156;8.220;2022-12-13T16:32:51;0.80;89.40
7658;DHT22;8462;53.156;8.220;2022-12-13T16:35:18;0.70;89.30
7658;DHT22;8462;53.156;8.220;2022-12-13T16:37:46;0.70;89.30
7658;DHT22;8462;53.156;8.220;2022-12-13T16:40:26;0.70;89.50
7658;DHT22;8462;53.156;8.220;2022-12-13T16:42:59;0.60;89.50
7658;DHT22;8462;53.156;8.220;2022-12-13T16:45:30;0.60;89.70
7658;DHT22;8462;53.156;8.220;2022-12-13T16:48:00;0.60;89.70
7658;DHT22;8462;53.156;8.220;2022-12-13T16:50:31;0.60;89.60
7658;DHT22;8462;53.156;8.220;2022-12-13T16:53:00;0.60;89.50
7658;DHT22;8462;53.156;8.220;2022-12-13T16:55:28;0.60;89.10
7658;DHT22;8462;53.156;8.220;2022-12-13T16:57:58;0.60;88.90
7658;DHT22;8462;53.156;8.220;2022-12-13T17:00:25;0.50;88.70
7658;DHT22;8462;53.156;8.220;2022-12-13T17:02:52;0.40;88.70